If you wish to contribute or participate in the discussions about articles you are invited to join SKYbrary as a registered user

 Actions

Figari Sud-Corse Airport

From SKYbrary Wiki

LFKF
Airport
ICAO: LFKF – IATA: FSC
Summary
Name Figari Sud-Corse Airport
Region Europe
Territory France FR.gif
Location , Corse
Serving Figari
Elevation 26.518 m
87 ft
87 ft26.518 m
Type medium airport
Coordinates 41° 30' 2.01" N, 9° 5' 52.00" E
Runways
Designator Length Width Surface ROPS
5/23 2480 m8,136.483 ft
45 m147.638 ft
ASP yes/yes


METAR
Observation LFKF 221230Z AUTO 23014KT CAVOK 21/14 Q1016 NOSIG
Station Figari
Date/Time 22 May 2019 12:30:00
Wind direction 230°
Wind speed 14 kts
Lowest cloud amount clouds and visibility OK
Temperature 21°C
Dew point 14°C
Humidity 64%
QNH 1016 hPa
Weather condition n/a